createdAt,value
2016-09-27T00:00:07.075Z,71.67
2016-09-27T00:00:28.784Z,71.59
2016-09-27T00:00:50.510Z,71.29
2016-09-27T00:01:12.238Z,71.31
2016-09-27T00:01:33.956Z,71.72
2016-09-27T00:01:55.699Z,71.98
2016-09-27T00:02:17.408Z,71.66
2016-09-27T00:02:39.130Z,71.45
2016-09-27T00:03:00.858Z,71.65
2016-09-27T00:03:22.656Z,71.88
2016-09-27T00:03:44.368Z,71.27
2016-09-27T00:04:06.087Z,71.49
2016-09-27T00:04:27.815Z,70.96
2016-09-27T00:04:49.546Z,71.15
2016-09-27T00:05:11.273Z,71.02
2016-09-27T00:05:33.015Z,71.26
2016-09-27T00:05:54.736Z,71.15
2016-09-27T00:06:16.464Z,71.07
2016-09-27T00:06:38.198Z,71.12
2016-09-27T00:06:59.923Z,71.26
2016-09-27T00:07:21.651Z,71.70
2016-09-27T00:07:43.366Z,71.96
2016-09-27T00:08:05.095Z,71.91
2016-09-27T00:08:26.825Z,72.04
2016-09-27T00:08:48.551Z,72.01
2016-09-27T00:09:10.272Z,72.00
2016-09-27T00:09:31.991Z,71.76
2016-09-27T00:09:53.705Z,71.75
2016-09-27T00:10:15.437Z,71.63
2016-09-27T00:10:37.155Z,71.75
2016-09-27T00:11:51.881Z,72.08
2016-09-27T00:12:18.374Z,71.92
2016-09-27T00:12:40.096Z,72.04
2016-09-27T00:13:01.827Z,72.18
2016-09-27T00:13:23.565Z,72.40
2016-09-27T00:13:45.290Z,72.69
2016-09-27T00:14:07.004Z,72.99
2016-09-27T00:14:28.717Z,72.90
2016-09-27T00:14:50.441Z,72.72
2016-09-27T00:15:12.157Z,72.74
2016-09-27T00:15:33.894Z,72.65
2016-09-27T00:15:55.616Z,72.42
2016-09-27T00:16:17.340Z,72.31
2016-09-27T00:16:39.062Z,72.34
2016-09-27T00:17:00.780Z,72.28
2016-09-27T00:17:22.505Z,72.12
2016-09-27T00:17:44.227Z,72.13
2016-09-27T00:18:05.974Z,72.34
2016-09-27T00:18:27.695Z,72.56
2016-09-27T00:18:49.427Z,72.74
2016-09-27T00:19:11.152Z,72.65
2016-09-27T00:19:33.884Z,72.58
2016-09-27T00:19:55.618Z,72.32
2016-09-27T00:20:22.111Z,72.27
2016-09-27T00:20:43.833Z,72.51
2016-09-27T00:21:10.323Z,73.00
2016-09-27T00:21:36.808Z,72.84
2016-09-27T00:21:58.523Z,72.59
2016-09-27T00:22:20.243Z,72.55
2016-09-27T00:22:41.962Z,72.56
2016-09-27T00:23:03.678Z,72.46
2016-09-27T00:23:51.906Z,72.04
2016-09-27T00:24:13.635Z,71.61
2016-09-27T00:24:35.356Z,71.62
2016-09-27T00:24:57.074Z,71.66
2016-09-27T00:25:23.574Z,71.96
2016-09-27T00:25:45.298Z,72.17
2016-09-27T00:26:16.558Z,72.32
2016-09-27T00:26:38.306Z,72.21
2016-09-27T00:27:04.799Z,72.16
2016-09-27T00:27:26.514Z,72.23
2016-09-27T00:27:48.251Z,72.20
2016-09-27T00:28:09.979Z,71.82
2016-09-27T00:28:31.711Z,71.63
2016-09-27T00:28:53.438Z,71.31
2016-09-27T00:29:15.153Z,71.34
2016-09-27T00:29:36.868Z,71.41
2016-09-27T00:29:58.600Z,71.73
2016-09-27T00:30:20.315Z,71.71
2016-09-27T00:30:42.043Z,72.09
2016-09-27T00:31:03.768Z,72.14
2016-09-27T00:31:25.482Z,71.99
2016-09-27T00:31:47.205Z,71.97
2016-09-27T00:32:11.636Z,71.92
2016-09-27T00:32:33.365Z,72.20
2016-09-27T00:32:55.089Z,72.43
2016-09-27T00:33:16.804Z,72.30
2016-09-27T00:33:38.539Z,72.32
2016-09-27T00:34:00.247Z,72.27
2016-09-27T00:34:21.972Z,72.29
2016-09-27T00:34:43.700Z,72.28
2016-09-27T00:35:14.972Z,72.51
2016-09-27T00:35:37.700Z,72.43
2016-09-27T00:35:59.433Z,72.76
2016-09-27T00:36:30.701Z,72.47
2016-09-27T00:36:52.420Z,72.35
2016-09-27T00:37:14.144Z,72.17
2016-09-27T00:37:35.872Z,72.07
2016-09-27T00:37:57.596Z,72.09
2016-09-27T00:38:19.315Z,71.86
2016-09-27T00:38:41.047Z,71.94
2016-09-27T00:39:02.771Z,71.97
2016-09-27T00:39:24.509Z,72.10
2016-09-27T00:39:46.230Z,72.19
2016-09-27T00:40:07.952Z,72.49
2016-09-27T00:40:29.692Z,72.69
2016-09-27T00:40:51.420Z,72.92
2016-09-27T00:41:13.141Z,73.06
2016-09-27T00:41:34.864Z,73.05
2016-09-27T00:41:56.582Z,72.87
2016-09-27T00:42:18.313Z,72.82
2016-09-27T00:42:40.025Z,72.67
2016-09-27T00:43:01.945Z,72.41
2016-09-27T00:43:23.686Z,72.13
2016-09-27T00:43:45.405Z,72.35
2016-09-27T00:44:07.135Z,72.69
2016-09-27T00:44:28.847Z,73.12
2016-09-27T00:44:50.595Z,72.80
2016-09-27T00:45:12.319Z,72.75
2016-09-27T00:45:35.046Z,72.90
2016-09-27T00:46:02.540Z,73.11
2016-09-27T00:46:34.361Z,73.14
2016-09-27T00:47:00.672Z,72.52
2016-09-27T00:47:22.405Z,72.52
2016-09-27T00:47:44.127Z,72.48
2016-09-27T00:48:08.649Z,72.43
2016-09-27T00:48:35.144Z,72.70
2016-09-27T00:48:57.858Z,73.07
2016-09-27T00:49:19.564Z,73.04
2016-09-27T00:49:42.287Z,72.87
2016-09-27T00:50:04.000Z,72.50
2016-09-27T00:50:25.724Z,72.32
2016-09-27T00:50:47.448Z,72.19
2016-09-27T00:51:09.174Z,72.16
2016-09-27T00:51:30.901Z,71.85
2016-09-27T00:51:52.617Z,71.57
2016-09-27T00:52:14.348Z,71.56
2016-09-27T00:52:36.070Z,71.28
2016-09-27T00:52:57.797Z,71.51
2016-09-27T00:53:19.519Z,71.78
2016-09-27T00:53:41.244Z,71.74
2016-09-27T00:54:02.959Z,71.92
2016-09-27T00:54:24.678Z,72.16
2016-09-27T00:54:46.393Z,72.01
2016-09-27T00:55:08.133Z,72.04
2016-09-27T00:55:29.854Z,72.08
2016-09-27T00:55:51.582Z,72.09
2016-09-27T00:56:13.310Z,72.02
2016-09-27T00:56:35.041Z,71.89
2016-09-27T00:56:56.764Z,71.88
2016-09-27T00:57:18.479Z,72.03
2016-09-27T00:57:40.207Z,72.50
2016-09-27T00:58:01.928Z,72.54
2016-09-27T00:58:23.820Z,72.63
2016-09-27T00:58:45.445Z,72.44
2016-09-27T00:59:07.186Z,72.19
2016-09-27T00:59:28.907Z,72.17
2016-09-27T00:59:50.636Z,72.13
2016-09-27T01:00:12.367Z,72.23
2016-09-27T01:00:34.091Z,71.96
2016-09-27T01:00:55.809Z,71.94
2016-09-27T01:01:17.532Z,72.08
2016-09-27T01:01:39.259Z,71.92
2016-09-27T01:02:01.992Z,71.92
2016-09-27T01:02:23.714Z,72.11
2016-09-27T01:02:45.432Z,71.93
2016-09-27T01:03:07.160Z,72.07
2016-09-27T01:03:28.888Z,72.09
2016-09-27T01:03:50.597Z,72.44
2016-09-27T01:04:12.335Z,73.22
2016-09-27T01:04:34.066Z,73.52
2016-09-27T01:04:55.791Z,73.67
2016-09-27T01:05:17.515Z,74.00
2016-09-27T01:05:39.231Z,74.53
2016-09-27T01:06:00.956Z,74.62
2016-09-27T01:06:22.677Z,74.87
2016-09-27T01:06:44.401Z,75.08
2016-09-27T01:07:06.149Z,75.03
2016-09-27T01:07:27.878Z,74.84
2016-09-27T01:07:49.595Z,74.44
2016-09-27T01:08:11.314Z,74.26
2016-09-27T01:08:33.038Z,74.29
2016-09-27T01:08:54.769Z,74.42
2016-09-27T01:09:16.494Z,74.69
2016-09-27T01:09:38.213Z,74.67
2016-09-27T01:09:59.937Z,74.71
2016-09-27T01:10:21.660Z,74.78
2016-09-27T01:10:43.381Z,74.54
2016-09-27T01:11:05.096Z,74.36
2016-09-27T01:11:26.818Z,74.41
2016-09-27T01:11:48.549Z,74.31
2016-09-27T01:12:10.280Z,74.33
2016-09-27T01:12:32.008Z,74.00
2016-09-27T01:12:53.717Z,74.08
2016-09-27T01:13:15.428Z,74.02
2016-09-27T01:13:37.166Z,73.57
2016-09-27T01:13:58.883Z,73.38
2016-09-27T01:14:51.867Z,72.81
2016-09-27T01:15:13.592Z,72.69
2016-09-27T01:15:44.677Z,72.68
2016-09-27T01:16:06.406Z,72.50
2016-09-27T01:16:28.123Z,72.54
2016-09-27T01:16:54.609Z,72.81
2016-09-27T01:17:17.332Z,72.76
2016-09-27T01:17:39.057Z,72.55
2016-09-27T01:18:00.782Z,72.32
2016-09-27T01:18:22.507Z,72.38
2016-09-27T01:18:44.226Z,72.31
2016-09-27T01:19:05.947Z,72.44
2016-09-27T01:19:27.653Z,72.20
2016-09-27T01:19:54.225Z,72.30
2016-09-27T01:20:15.960Z,72.25
2016-09-27T01:20:37.682Z,72.23
2016-09-27T01:20:59.529Z,72.34
2016-09-27T01:21:21.246Z,72.59
2016-09-27T01:21:42.975Z,72.81
2016-09-27T01:22:04.705Z,73.01
2016-09-27T01:22:26.418Z,73.11
2016-09-27T01:22:48.135Z,73.30
2016-09-27T01:23:09.874Z,73.37
2016-09-27T01:23:31.592Z,73.48
2016-09-27T01:23:53.323Z,73.33
2016-09-27T01:24:15.038Z,73.05
2016-09-27T01:24:36.776Z,73.02
2016-09-27T01:24:58.506Z,73.01
2016-09-27T01:25:20.251Z,72.55
2016-09-27T01:25:41.986Z,72.26
2016-09-27T01:26:03.729Z,72.17
2016-09-27T01:26:25.461Z,72.48
2016-09-27T01:26:47.175Z,73.11
2016-09-27T01:27:08.914Z,72.71
2016-09-27T01:27:31.250Z,72.53
2016-09-27T01:27:52.971Z,72.57
2016-09-27T01:28:14.689Z,73.08
2016-09-27T01:28:36.412Z,73.32
2016-09-27T01:29:54.008Z,73.78
2016-09-27T01:30:15.746Z,73.80
2016-09-27T01:30:37.464Z,73.87
2016-09-27T01:30:59.185Z,73.77
2016-09-27T01:31:20.904Z,73.74
2016-09-27T01:31:42.616Z,74.00
2016-09-27T01:32:35.598Z,74.63
2016-09-27T01:32:57.325Z,74.52
2016-09-27T01:33:19.051Z,74.51
2016-09-27T01:33:40.776Z,74.41
2016-09-27T01:34:02.494Z,74.26
2016-09-27T01:34:24.235Z,74.03
2016-09-27T01:34:45.963Z,73.98
2016-09-27T01:35:07.681Z,74.04
2016-09-27T01:35:29.397Z,74.16
2016-09-27T01:35:51.115Z,74.09
2016-09-27T01:36:12.907Z,74.18
2016-09-27T01:36:34.616Z,74.21
2016-09-27T01:36:56.341Z,74.29
2016-09-27T01:37:18.056Z,74.17
2016-09-27T01:37:39.799Z,73.91
2016-09-27T01:38:01.506Z,73.62
2016-09-27T01:38:23.217Z,73.52
2016-09-27T01:38:44.955Z,73.34
2016-09-27T01:39:06.673Z,73.24
2016-09-27T01:39:28.389Z,73.31
2016-09-27T01:39:51.105Z,73.37
2016-09-27T01:40:12.840Z,73.74
2016-09-27T01:40:34.561Z,73.54
2016-09-27T01:40:56.286Z,73.66
2016-09-27T01:41:18.017Z,73.58
2016-09-27T01:41:39.749Z,73.61
2016-09-27T01:42:01.477Z,73.47
2016-09-27T01:42:23.198Z,73.31
2016-09-27T01:42:44.929Z,73.79
2016-09-27T01:43:06.635Z,73.96
2016-09-27T01:43:28.376Z,74.14
2016-09-27T01:43:50.093Z,73.92
2016-09-27T01:44:11.826Z,73.92
2016-09-27T01:44:33.550Z,73.87
2016-09-27T01:44:55.259Z,74.06
2016-09-27T01:45:16.981Z,74.83
2016-09-27T01:45:38.711Z,74.91
2016-09-27T01:46:00.426Z,74.62
2016-09-27T01:46:22.165Z,74.66
2016-09-27T01:46:43.880Z,74.57
2016-09-27T01:47:05.613Z,74.68
2016-09-27T01:47:27.333Z,74.89
2016-09-27T01:47:49.058Z,75.28
2016-09-27T01:48:10.776Z,75.68
2016-09-27T01:48:32.498Z,75.89
2016-09-27T01:48:54.231Z,75.93
2016-09-27T01:49:15.978Z,75.87
2016-09-27T01:49:37.684Z,75.55
2016-09-27T01:49:59.422Z,75.58
2016-09-27T01:50:21.147Z,75.87
2016-09-27T01:50:42.864Z,75.51
2016-09-27T01:51:04.715Z,75.39
2016-09-27T01:51:26.440Z,75.46
2016-09-27T01:51:48.174Z,75.20
2016-09-27T01:52:09.893Z,74.94
2016-09-27T01:52:31.611Z,74.64
2016-09-27T01:52:53.348Z,74.33
2016-09-27T01:53:15.092Z,74.12
2016-09-27T01:53:36.820Z,73.83
2016-09-27T01:53:58.551Z,73.71
2016-09-27T01:54:20.276Z,73.55
2016-09-27T01:54:42.001Z,73.64
2016-09-27T01:55:03.725Z,73.61
2016-09-27T01:55:25.457Z,73.51
2016-09-27T01:55:47.179Z,73.46
2016-09-27T01:56:08.900Z,73.56
2016-09-27T01:56:30.644Z,73.59
2016-09-27T01:56:52.359Z,73.82
2016-09-27T01:57:14.100Z,73.94
2016-09-27T01:57:35.815Z,74.40
2016-09-27T01:58:28.653Z,74.74
2016-09-27T01:58:50.387Z,74.87
2016-09-27T01:59:16.800Z,75.35
2016-09-27T01:59:38.535Z,75.14
2016-09-27T02:00:06.028Z,74.66
2016-09-27T02:00:27.767Z,74.36
2016-09-27T02:00:49.501Z,73.95
2016-09-27T02:01:11.220Z,73.59
2016-09-27T02:01:32.941Z,73.18
2016-09-27T02:01:54.666Z,72.97
2016-09-27T02:02:19.005Z,73.00
2016-09-27T02:02:40.739Z,73.00
2016-09-27T02:03:02.463Z,72.94
2016-09-27T02:03:27.053Z,72.75
2016-09-27T02:03:48.775Z,72.90
2016-09-27T02:04:10.499Z,73.18
2016-09-27T02:04:32.218Z,73.46
2016-09-27T02:04:53.942Z,73.58
2016-09-27T02:05:15.671Z,73.88
2016-09-27T02:05:37.395Z,73.77
2016-09-27T02:05:59.122Z,73.86
2016-09-27T02:06:20.842Z,73.92
2016-09-27T02:06:42.583Z,73.95
2016-09-27T02:07:04.304Z,73.59
2016-09-27T02:07:26.032Z,73.34
2016-09-27T02:07:47.779Z,73.10
2016-09-27T02:08:09.513Z,72.96
2016-09-27T02:08:31.240Z,72.62
2016-09-27T02:08:52.966Z,72.72
2016-09-27T02:09:14.684Z,72.75
2016-09-27T02:09:36.409Z,72.82
2016-09-27T02:09:58.124Z,72.66
2016-09-27T02:10:19.875Z,72.62
2016-09-27T02:10:41.606Z,72.61
2016-09-27T02:11:03.329Z,72.82
2016-09-27T02:11:25.043Z,72.67
2016-09-27T02:11:46.776Z,73.13
2016-09-27T02:12:08.486Z,73.18
2016-09-27T02:12:30.207Z,73.20
2016-09-27T02:12:51.960Z,73.03
2016-09-27T02:13:13.688Z,73.22
2016-09-27T02:13:40.182Z,73.54
2016-09-27T02:14:01.906Z,73.71
2016-09-27T02:14:23.628Z,73.89
2016-09-27T02:14:45.343Z,74.51
2016-09-27T02:15:07.097Z,74.71
2016-09-27T02:15:28.825Z,74.49
2016-09-27T02:15:50.544Z,74.50
2016-09-27T02:16:12.261Z,74.63
2016-09-27T02:16:33.987Z,74.20
2016-09-27T02:16:55.717Z,74.30
2016-09-27T02:17:58.047Z,74.70
2016-09-27T02:18:19.768Z,74.82
2016-09-27T02:18:41.481Z,74.89
2016-09-27T02:19:03.189Z,74.51
2016-09-27T02:19:24.901Z,74.23
2016-09-27T02:19:46.626Z,74.22
2016-09-27T02:20:08.348Z,74.05
2016-09-27T02:20:30.073Z,74.07
2016-09-27T02:20:51.791Z,73.79
2016-09-27T02:21:13.526Z,73.60
2016-09-27T02:21:35.241Z,73.63
2016-09-27T02:21:56.969Z,73.56
2016-09-27T02:22:18.690Z,73.62
2016-09-27T02:23:16.280Z,73.96
2016-09-27T02:23:38.025Z,74.13
2016-09-27T02:23:59.749Z,74.21
2016-09-27T02:24:21.480Z,74.18
2016-09-27T02:24:43.232Z,74.00
2016-09-27T02:25:09.746Z,74.11
2016-09-27T02:25:31.477Z,74.12
2016-09-27T02:25:53.193Z,73.71
2016-09-27T02:26:56.455Z,73.67
2016-09-27T02:27:23.078Z,73.99
2016-09-27T02:27:44.830Z,74.27
2016-09-27T02:28:37.820Z,74.49
2016-09-27T02:28:59.550Z,74.89
2016-09-27T02:29:21.267Z,74.54
2016-09-27T02:29:43.112Z,74.40
2016-09-27T02:30:04.834Z,74.30
2016-09-27T02:30:26.576Z,74.50
2016-09-27T02:30:48.297Z,74.45
2016-09-27T02:31:10.025Z,74.39
2016-09-27T02:31:31.749Z,74.57
2016-09-27T02:31:53.468Z,74.49
2016-09-27T02:32:15.195Z,74.68
2016-09-27T02:32:46.271Z,74.60
2016-09-27T02:33:07.989Z,74.72
2016-09-27T02:33:34.485Z,74.62
2016-09-27T02:33:56.207Z,74.49
2016-09-27T02:34:44.434Z,74.33
2016-09-27T02:35:06.146Z,74.06
2016-09-27T02:35:27.874Z,74.11
2016-09-27T02:35:49.592Z,74.22
2016-09-27T02:36:11.324Z,74.07
2016-09-27T02:36:33.046Z,73.96
2016-09-27T02:36:55.767Z,73.83
2016-09-27T02:37:18.491Z,73.65
2016-09-27T02:37:40.206Z,73.63
2016-09-27T02:38:01.940Z,73.89
2016-09-27T02:38:33.024Z,73.51
2016-09-27T02:38:54.745Z,73.58
2016-09-27T02:39:21.227Z,73.42
2016-09-27T02:39:42.954Z,73.52
2016-09-27T02:40:04.688Z,73.74
2016-09-27T02:40:26.413Z,73.62
2016-09-27T02:40:48.142Z,73.59
2016-09-27T02:41:14.632Z,73.88
2016-09-27T02:41:45.897Z,73.65
2016-09-27T02:42:38.709Z,73.79
2016-09-27T02:44:02.776Z,74.00
2016-09-27T02:44:24.517Z,73.81
2016-09-27T02:44:46.242Z,74.02
2016-09-27T02:45:12.738Z,74.12
2016-09-27T02:45:34.467Z,74.12
2016-09-27T02:45:56.210Z,74.41
2016-09-27T02:46:17.951Z,74.79
2016-09-27T02:46:39.685Z,75.02
2016-09-27T02:47:01.413Z,75.11
2016-09-27T02:47:23.132Z,75.58
2016-09-27T02:47:44.849Z,75.15
2016-09-27T02:48:06.567Z,75.32
2016-09-27T02:48:28.348Z,75.63
2016-09-27T02:48:54.836Z,75.48
2016-09-27T02:49:16.565Z,75.52
2016-09-27T02:49:38.338Z,75.58
2016-09-27T02:50:00.057Z,75.23
2016-09-27T02:50:26.555Z,74.83
2016-09-27T02:50:48.280Z,74.65
2016-09-27T02:51:10.044Z,74.43
2016-09-27T02:51:31.758Z,73.98
2016-09-27T02:51:58.242Z,74.35
2016-09-27T02:52:24.868Z,74.77
2016-09-27T02:52:46.594Z,75.15
2016-09-27T02:53:15.596Z,75.31
2016-09-27T02:53:37.328Z,75.52
2016-09-27T02:53:59.077Z,75.07
2016-09-27T02:54:20.805Z,74.80
2016-09-27T02:54:47.295Z,74.50
2016-09-27T02:55:18.568Z,74.43
2016-09-27T02:55:40.310Z,74.49
2016-09-27T02:56:02.037Z,74.42
2016-09-27T02:56:23.747Z,74.65
2016-09-27T02:56:45.471Z,75.02
2016-09-27T02:57:07.202Z,74.78
2016-09-27T02:57:28.924Z,74.64
2016-09-27T02:57:50.668Z,74.71
2016-09-27T02:58:12.393Z,74.79
2016-09-27T02:58:34.121Z,74.73
2016-09-27T02:59:05.395Z,74.60
2016-09-27T02:59:31.708Z,74.49
2016-09-27T02:59:53.429Z,74.28
2016-09-27T03:00:15.161Z,73.89
2016-09-27T03:00:36.902Z,74.26
2016-09-27T03:01:03.401Z,74.92
2016-09-27T03:01:29.897Z,75.25
2016-09-27T03:01:51.641Z,75.65
2016-09-27T03:02:13.376Z,75.72
2016-09-27T03:02:35.100Z,75.31
2016-09-27T03:02:56.835Z,75.57
2016-09-27T03:03:18.556Z,75.22
2016-09-27T03:03:40.270Z,74.97
2016-09-27T03:04:04.969Z,74.87
2016-09-27T03:04:26.700Z,75.10
2016-09-27T03:05:29.974Z,75.29
2016-09-27T03:05:51.692Z,75.22
2016-09-27T03:06:13.429Z,75.37
2016-09-27T03:06:35.149Z,75.39
2016-09-27T03:06:56.867Z,75.28
2016-09-27T03:07:18.578Z,75.60
2016-09-27T03:07:40.297Z,75.80
2016-09-27T03:08:02.038Z,75.69
2016-09-27T03:08:23.759Z,75.70
2016-09-27T03:08:45.491Z,75.60
2016-09-27T03:09:07.203Z,75.25
2016-09-27T03:09:28.922Z,75.23
2016-09-27T03:09:50.649Z,75.04
2016-09-27T03:10:12.383Z,75.34
2016-09-27T03:10:34.103Z,75.43
2016-09-27T03:10:55.830Z,75.25
2016-09-27T03:11:17.571Z,75.35
2016-09-27T03:11:39.286Z,75.05
2016-09-27T03:12:01.004Z,75.02
2016-09-27T03:12:22.784Z,74.96
2016-09-27T03:12:44.496Z,75.27
2016-09-27T03:13:06.208Z,75.29
2016-09-27T03:13:27.930Z,75.47
2016-09-27T03:13:54.247Z,75.88
2016-09-27T03:14:15.968Z,75.86
2016-09-27T03:14:37.692Z,75.75
2016-09-27T03:14:59.408Z,75.73
2016-09-27T03:15:21.136Z,75.92
2016-09-27T03:16:18.896Z,75.95
2016-09-27T03:16:40.624Z,75.88
2016-09-27T03:17:02.347Z,75.82
2016-09-27T03:17:38.196Z,76.09
2016-09-27T03:17:59.904Z,76.31
2016-09-27T03:18:21.629Z,76.32
2016-09-27T03:18:43.354Z,76.43
2016-09-27T03:19:05.075Z,76.03
2016-09-27T03:19:26.812Z,76.13
2016-09-27T03:19:48.537Z,76.29
2016-09-27T03:20:15.044Z,76.05
2016-09-27T03:20:36.772Z,76.33
2016-09-27T03:20:58.486Z,75.97
2016-09-27T03:21:20.215Z,76.43
2016-09-27T03:21:41.930Z,76.60
2016-09-27T03:22:03.645Z,76.73
2016-09-27T03:22:25.431Z,76.67
2016-09-27T03:22:47.159Z,76.92
2016-09-27T03:23:08.881Z,77.05
2016-09-27T03:23:30.603Z,76.99
2016-09-27T03:23:52.334Z,77.20
2016-09-27T03:24:14.061Z,77.32
2016-09-27T03:24:35.780Z,77.21
2016-09-27T03:25:34.039Z,77.38
2016-09-27T03:25:55.758Z,77.76
2016-09-27T03:26:17.476Z,77.72
2016-09-27T03:26:39.191Z,78.06
2016-09-27T03:27:00.916Z,78.25
2016-09-27T03:27:25.621Z,78.42
2016-09-27T03:27:47.352Z,78.50
2016-09-27T03:28:09.070Z,78.48
2016-09-27T03:28:35.579Z,78.40
2016-09-27T03:28:57.295Z,78.34
2016-09-27T03:29:28.555Z,78.57
2016-09-27T03:29:50.270Z,78.04
2016-09-27T03:30:11.995Z,78.24
2016-09-27T03:30:33.714Z,78.20
2016-09-27T03:30:55.438Z,78.30
2016-09-27T03:31:21.938Z,78.30
2016-09-27T03:31:43.659Z,78.48
2016-09-27T03:32:05.379Z,78.09
2016-09-27T03:32:27.108Z,77.90
2016-09-27T03:32:48.821Z,77.73
2016-09-27T03:33:10.551Z,77.74
2016-09-27T03:33:32.280Z,77.79
2016-09-27T03:34:34.623Z,79.03
2016-09-27T03:34:56.360Z,79.46
2016-09-27T03:35:18.146Z,79.76
2016-09-27T03:35:39.880Z,79.45
2016-09-27T03:36:01.602Z,79.90
2016-09-27T03:36:23.327Z,79.92
2016-09-27T03:36:45.051Z,79.53
2016-09-27T03:37:06.760Z,79.67
2016-09-27T03:37:28.479Z,79.52
2016-09-27T03:37:50.200Z,79.34
2016-09-27T03:38:11.928Z,79.03
2016-09-27T03:38:33.660Z,78.92
2016-09-27T03:38:55.385Z,78.81
2016-09-27T03:39:17.100Z,78.68
2016-09-27T03:39:38.851Z,78.67
2016-09-27T03:40:00.571Z,79.07
2016-09-27T03:40:22.284Z,78.96
2016-09-27T03:40:44.006Z,79.39
2016-09-27T03:41:10.498Z,79.45
2016-09-27T03:41:32.221Z,79.29
2016-09-27T03:41:53.954Z,79.44
2016-09-27T03:42:15.677Z,79.55
2016-09-27T03:42:37.395Z,79.59
2016-09-27T03:42:59.135Z,79.71
2016-09-27T03:43:20.883Z,79.42
2016-09-27T03:43:42.598Z,79.86
2016-09-27T03:44:04.330Z,80.36
2016-09-27T03:44:26.057Z,80.01
2016-09-27T03:44:47.780Z,79.87
2016-09-27T03:45:09.526Z,79.61
2016-09-27T03:45:31.245Z,79.36
2016-09-27T03:45:52.976Z,79.42
2016-09-27T03:46:14.701Z,79.85
2016-09-27T03:46:36.436Z,79.57
2016-09-27T03:46:58.151Z,79.64
2016-09-27T03:47:19.878Z,80.01
2016-09-27T03:47:41.603Z,79.85
2016-09-27T03:48:03.325Z,80.40
2016-09-27T03:48:25.047Z,80.16
2016-09-27T03:48:46.778Z,80.03
2016-09-27T03:49:08.499Z,80.26
2016-09-27T03:49:30.225Z,80.56
2016-09-27T03:49:51.939Z,80.75
2016-09-27T03:50:13.665Z,80.81
2016-09-27T03:50:35.383Z,81.00
2016-09-27T03:50:57.104Z,81.24
2016-09-27T03:51:18.823Z,80.87
2016-09-27T03:51:45.316Z,81.50
2016-09-27T03:52:07.034Z,81.56
2016-09-27T03:52:28.759Z,81.64
2016-09-27T03:52:50.480Z,81.81
2016-09-27T03:53:12.215Z,81.04
2016-09-27T03:53:33.944Z,80.69
2016-09-27T03:53:55.662Z,80.84
2016-09-27T03:54:17.386Z,81.36
2016-09-27T03:54:39.111Z,81.74
2016-09-27T03:55:00.856Z,81.96
2016-09-27T03:55:22.577Z,82.36
2016-09-27T03:55:44.309Z,82.76
2016-09-27T03:56:06.021Z,82.65
2016-09-27T03:56:27.754Z,82.63
2016-09-27T03:56:49.479Z,82.89
2016-09-27T03:57:11.194Z,82.62
2016-09-27T03:57:33.041Z,83.01
2016-09-27T03:57:54.760Z,83.05
2016-09-27T03:58:16.468Z,83.13
2016-09-27T03:58:38.197Z,83.01
2016-09-27T03:58:59.916Z,82.21
2016-09-27T03:59:21.637Z,81.85
2016-09-27T03:59:43.352Z,81.66
2016-09-27T04:00:05.080Z,80.92
2016-09-27T04:00:26.802Z,80.64
2016-09-27T04:00:48.523Z,80.93
2016-09-27T04:01:36.777Z,80.53
2016-09-27T04:01:58.491Z,80.50
2016-09-27T04:02:20.223Z,80.53
2016-09-27T04:02:41.941Z,81.62
2016-09-27T04:03:03.672Z,82.39
2016-09-27T04:03:25.410Z,82.10
2016-09-27T04:03:51.912Z,82.55
2016-09-27T04:04:13.634Z,82.52
2016-09-27T04:04:35.471Z,82.59
2016-09-27T04:05:01.976Z,82.89
2016-09-27T04:05:23.704Z,83.01
2016-09-27T04:05:45.554Z,82.58
2016-09-27T04:06:07.282Z,82.46
2016-09-27T04:06:29.016Z,82.05
2016-09-27T04:06:50.748Z,81.84
2016-09-27T04:07:12.472Z,81.80
2016-09-27T04:07:34.207Z,82.08
2016-09-27T04:07:55.935Z,81.52
2016-09-27T04:08:17.669Z,81.28
2016-09-27T04:08:39.391Z,81.35
2016-09-27T04:09:01.122Z,81.72
2016-09-27T04:09:22.847Z,81.30
2016-09-27T04:09:44.566Z,81.24
2016-09-27T04:10:07.298Z,81.14
2016-09-27T04:10:29.023Z,81.58
2016-09-27T04:10:50.758Z,81.54
2016-09-27T04:11:12.474Z,81.72
2016-09-27T04:11:34.213Z,81.88
2016-09-27T04:11:55.964Z,82.17
2016-09-27T04:12:20.636Z,81.89
2016-09-27T04:12:42.358Z,81.81
2016-09-27T04:13:04.079Z,81.88
2016-09-27T04:13:25.807Z,81.96
2016-09-27T04:13:47.535Z,82.49
2016-09-27T04:14:09.247Z,82.84
2016-09-27T04:15:03.254Z,82.56
2016-09-27T04:15:24.969Z,82.35
2016-09-27T04:15:46.700Z,82.34
2016-09-27T04:16:11.067Z,82.45
2016-09-27T04:16:32.784Z,82.78
2016-09-27T04:16:54.521Z,82.94
2016-09-27T04:17:16.245Z,82.98
2016-09-27T04:17:37.974Z,83.57
2016-09-27T04:17:59.711Z,83.98
2016-09-27T04:18:21.440Z,84.54
2016-09-27T04:18:43.171Z,84.43
2016-09-27T04:19:04.889Z,84.42
2016-09-27T04:19:27.615Z,84.35
2016-09-27T04:19:49.350Z,84.54
2016-09-27T04:20:11.062Z,84.63
2016-09-27T04:20:32.781Z,84.74
2016-09-27T04:20:54.501Z,84.76
2016-09-27T04:21:16.227Z,84.53
2016-09-27T04:21:42.716Z,84.97
2016-09-27T04:22:04.464Z,85.00
2016-09-27T04:22:26.185Z,84.98
2016-09-27T04:22:47.910Z,85.02
2016-09-27T04:23:09.664Z,84.97
2016-09-27T04:23:31.392Z,85.05
2016-09-27T04:23:53.110Z,84.80
2016-09-27T04:24:14.835Z,84.16
2016-09-27T04:24:42.330Z,83.84
2016-09-27T04:25:04.051Z,83.71
2016-09-27T04:25:25.774Z,83.54
2016-09-27T04:25:47.487Z,83.84
2016-09-27T04:26:09.219Z,83.97
2016-09-27T04:26:30.947Z,83.80
2016-09-27T04:26:52.672Z,83.63
2016-09-27T04:27:14.409Z,83.42
2016-09-27T04:27:36.137Z,83.33
2016-09-27T04:27:57.882Z,83.31
2016-09-27T04:28:19.607Z,83.20
2016-09-27T04:28:41.344Z,82.87
2016-09-27T04:29:03.062Z,82.60
2016-09-27T04:29:24.784Z,82.48
2016-09-27T04:29:46.502Z,82.84
2016-09-27T04:30:08.233Z,83.02
2016-09-27T04:30:29.972Z,82.74
2016-09-27T04:30:51.690Z,82.15
2016-09-27T04:31:13.421Z,81.90
2016-09-27T04:31:39.923Z,82.78
2016-09-27T04:32:01.661Z,83.41
2016-09-27T04:32:23.395Z,83.65
2016-09-27T04:32:45.111Z,84.09
2016-09-27T04:33:11.607Z,84.44
2016-09-27T04:33:33.322Z,84.43
2016-09-27T04:34:31.892Z,83.58
2016-09-27T04:34:54.624Z,83.67
2016-09-27T04:35:16.345Z,83.22
2016-09-27T04:35:38.068Z,83.26
2016-09-27T04:35:59.798Z,83.38
2016-09-27T04:36:21.536Z,83.74
2016-09-27T04:36:43.271Z,83.93
2016-09-27T04:37:05.991Z,83.76
2016-09-27T04:37:27.709Z,83.66
2016-09-27T04:38:15.922Z,83.02
2016-09-27T04:38:37.651Z,83.40
2016-09-27T04:38:59.390Z,83.14
2016-09-27T04:39:21.120Z,83.27
2016-09-27T04:39:42.921Z,82.88
2016-09-27T04:40:04.659Z,82.92
2016-09-27T04:40:26.390Z,83.11
2016-09-27T04:40:48.118Z,82.82
2016-09-27T04:41:09.837Z,82.87
2016-09-27T04:41:31.565Z,82.68
2016-09-27T04:41:53.303Z,82.88
2016-09-27T04:42:15.027Z,83.04
2016-09-27T04:42:36.753Z,82.71
2016-09-27T04:42:58.475Z,82.72
2016-09-27T04:43:20.196Z,82.42
2016-09-27T04:43:41.952Z,82.79
2016-09-27T04:44:03.671Z,82.52
2016-09-27T04:44:37.834Z,82.23
2016-09-27T04:44:59.570Z,82.34
2016-09-27T04:45:21.293Z,82.47
2016-09-27T04:45:43.028Z,82.65
2016-09-27T04:46:04.749Z,82.89
2016-09-27T04:46:26.480Z,82.92
2016-09-27T04:46:48.225Z,82.98
2016-09-27T04:47:09.953Z,82.95
2016-09-27T04:47:31.673Z,82.57
2016-09-27T04:47:58.170Z,82.27
2016-09-27T04:48:19.898Z,82.30
2016-09-27T04:48:42.621Z,81.81
2016-09-27T04:49:09.136Z,82.01
2016-09-27T04:49:30.848Z,82.06
2016-09-27T04:49:52.584Z,82.55
2016-09-27T04:50:14.314Z,82.27
2016-09-27T04:50:36.102Z,82.26
2016-09-27T04:50:57.821Z,82.53
2016-09-27T04:51:19.543Z,82.85
2016-09-27T04:51:41.267Z,82.98
2016-09-27T04:52:02.999Z,83.33
2016-09-27T04:52:29.511Z,83.61
2016-09-27T04:52:51.226Z,83.77
2016-09-27T04:53:12.947Z,83.66
2016-09-27T04:53:34.665Z,83.72
2016-09-27T04:53:56.403Z,83.47
2016-09-27T04:54:18.132Z,83.63
2016-09-27T04:54:39.862Z,83.41
2016-09-27T04:55:01.581Z,83.25
2016-09-27T04:55:23.307Z,83.32
2016-09-27T04:55:45.028Z,83.38
2016-09-27T04:56:08.896Z,83.66
2016-09-27T04:56:30.641Z,83.54
2016-09-27T04:56:52.366Z,83.43
2016-09-27T04:57:14.087Z,83.38
2016-09-27T04:57:35.806Z,83.38
2016-09-27T04:58:02.131Z,83.16
2016-09-27T04:58:23.882Z,83.14
2016-09-27T04:58:45.616Z,82.80
2016-09-27T04:59:47.982Z,82.80